sensor_id;sensor_type;location;lat;lon;timestamp;pressure;altitude;pressure_sealevel;temperature;humidity
21129;BME280;10722;51.910;8.352;2023-03-26T00:01:23;99910.34;;;7.27;100.00
21129;BME280;10722;51.910;8.352;2023-03-26T00:04:09;99907.06;;;7.35;100.00
21129;BME280;10722;51.910;8.352;2023-03-26T00:06:54;99911.16;;;7.26;100.00
21129;BME280;10722;51.910;8.352;2023-03-26T00:09:40;99926.84;;;7.38;100.00
21129;BME280;10722;51.910;8.352;2023-03-26T00:12:25;99924.06;;;7.27;100.00
21129;BME280;10722;51.910;8.352;2023-03-26T00:15:11;99931.00;;;7.31;100.00
21129;BME280;10722;51.910;8.352;2023-03-26T00:18:00;99931.03;;;7.34;100.00
21129;BME280;10722;51.910;8.352;2023-03-26T00:20:46;99925.91;;;7.34;100.00
21129;BME280;10722;51.910;8.352;2023-03-26T00:23:33;99935.94;;;7.21;100.00
21129;BME280;10722;51.910;8.352;2023-03-26T00:26:19;99933.63;;;7.34;100.00
21129;BME280;10722;51.910;8.352;2023-03-26T00:29:05;99935.34;;;7.34;100.00
21129;BME280;10722;51.910;8.352;2023-03-26T00:31:51;99943.75;;;7.24;100.00
21129;BME280;10722;51.910;8.352;2023-03-26T00:34:36;99926.50;;;7.19;100.00
21129;BME280;10722;51.910;8.352;2023-03-26T00:37:22;99935.13;;;7.22;100.00
21129;BME280;10722;51.910;8.352;2023-03-26T00:40:08;99940.34;;;7.26;100.00
21129;BME280;10722;51.910;8.352;2023-03-26T00:42:54;99941.13;;;7.22;100.00
21129;BME280;10722;51.910;8.352;2023-03-26T00:45:40;99946.31;;;7.24;100.00
21129;BME280;10722;51.910;8.352;2023-03-26T00:48:25;99952.34;;;7.26;100.00
21129;BME280;10722;51.910;8.352;2023-03-26T00:51:28;99941.19;;;7.24;100.00
21129;BME280;10722;51.910;8.352;2023-03-26T00:54:14;99934.41;;;7.30;100.00
21129;BME280;10722;51.910;8.352;2023-03-26T00:56:59;99943.84;;;7.30;100.00
21129;BME280;10722;51.910;8.352;2023-03-26T00:59:45;99940.34;;;7.26;100.00
21129;BME280;10722;51.910;8.352;2023-03-26T01:02:30;99935.13;;;7.23;100.00
21129;BME280;10722;51.910;8.352;2023-03-26T01:05:39;99941.09;;;7.21;100.00
21129;BME280;10722;51.910;8.352;2023-03-26T01:08:31;99938.56;;;7.22;100.00
21129;BME280;10722;51.910;8.352;2023-03-26T01:11:20;99944.59;;;7.24;100.00
21129;BME280;10722;51.910;8.352;2023-03-26T01:14:09;99941.06;;;7.19;100.00
21129;BME280;10722;51.910;8.352;2023-03-26T01:17:00;99942.69;;;7.12;100.00
21129;BME280;10722;51.910;8.352;2023-03-26T01:20:01;99933.31;;;7.16;100.00
21129;BME280;10722;51.910;8.352;2023-03-26T01:22:58;99934.13;;;7.15;100.00
21129;BME280;10722;51.910;8.352;2023-03-26T01:25:52;99932.38;;;7.12;100.00
21129;BME280;10722;51.910;8.352;2023-03-26T01:28:41;99927.31;;;7.17;100.00
21129;BME280;10722;51.910;8.352;2023-03-26T01:31:45;99927.09;;;7.06;100.00
21129;BME280;10722;51.910;8.352;2023-03-26T01:40:41;99926.19;;;7.01;100.00
21129;BME280;10722;51.910;8.352;2023-03-26T01:43:51;99928.69;;;7.00;100.00
21129;BME280;10722;51.910;8.352;2023-03-26T01:46:38;99921.84;;;7.00;100.00
21129;BME280;10722;51.910;8.352;2023-03-26T01:49:26;99914.94;;;6.97;100.00
21129;BME280;10722;51.910;8.352;2023-03-26T01:52:15;99910.69;;;7.00;100.00
21129;BME280;10722;51.910;8.352;2023-03-26T01:55:01;99911.56;;;6.99;100.00
21129;BME280;10722;51.910;8.352;2023-03-26T01:58:08;99912.41;;;6.99;100.00
21129;BME280;10722;51.910;8.352;2023-03-26T02:04:00;99907.34;;;7.04;100.00
21129;BME280;10722;51.910;8.352;2023-03-26T02:07:14;99903.91;;;7.03;100.00
21129;BME280;10722;51.910;8.352;2023-03-26T02:10:19;99905.63;;;7.03;100.00
21129;BME280;10722;51.910;8.352;2023-03-26T02:13:09;99895.31;;;7.01;100.00
21129;BME280;10722;51.910;8.352;2023-03-26T02:15:57;99900.47;;;7.01;100.00
21129;BME280;10722;51.910;8.352;2023-03-26T02:18:47;99902.97;;;7.00;100.00
21129;BME280;10722;51.910;8.352;2023-03-26T02:21:33;99891.94;;;7.05;100.00
21129;BME280;10722;51.910;8.352;2023-03-26T02:24:18;99886.91;;;7.11;100.00
21129;BME280;10722;51.910;8.352;2023-03-26T02:27:04;99894.63;;;7.11;100.00
21129;BME280;10722;51.910;8.352;2023-03-26T02:29:49;99885.16;;;7.09;100.00
21129;BME280;10722;51.910;8.352;2023-03-26T02:32:35;99876.56;;;7.08;100.00
21129;BME280;10722;51.910;8.352;2023-03-26T02:35:21;99872.34;;;7.12;100.00
21129;BME280;10722;51.910;8.352;2023-03-26T02:38:06;99882.63;;;7.10;100.00
21129;BME280;10722;51.910;8.352;2023-03-26T02:40:52;99868.78;;;7.05;100.00
21129;BME280;10722;51.910;8.352;2023-03-26T02:43:38;99872.22;;;7.06;100.00
21129;BME280;10722;51.910;8.352;2023-03-26T02:46:23;99870.63;;;7.11;100.00
21129;BME280;10722;51.910;8.352;2023-03-26T02:49:08;99866.28;;;7.07;100.00
21129;BME280;10722;51.910;8.352;2023-03-26T02:51:53;99866.28;;;7.08;100.00
21129;BME280;10722;51.910;8.352;2023-03-26T02:54:38;99859.41;;;7.07;100.00
21129;BME280;10722;51.910;8.352;2023-03-26T02:57:24;99862.84;;;7.09;100.00
21129;BME280;10722;51.910;8.352;2023-03-26T03:00:10;99859.41;;;7.07;100.00
21129;BME280;10722;51.910;8.352;2023-03-26T03:02:55;99857.72;;;7.09;100.00
21129;BME280;10722;51.910;8.352;2023-03-26T03:05:40;99854.28;;;7.07;100.00
21129;BME280;10722;51.910;8.352;2023-03-26T03:08:26;99851.75;;;7.10;100.00
21129;BME280;10722;51.910;8.352;2023-03-26T03:11:17;99848.31;;;7.11;100.00
21129;BME280;10722;51.910;8.352;2023-03-26T03:14:03;99842.22;;;7.06;100.00
21129;BME280;10722;51.910;8.352;2023-03-26T03:16:48;99833.69;;;7.07;100.00
21129;BME280;10722;51.910;8.352;2023-03-26T03:19:33;99830.28;;;7.08;100.00
21129;BME280;10722;51.910;8.352;2023-03-26T03:22:19;99831.94;;;7.06;100.00
21129;BME280;10722;51.910;8.352;2023-03-26T03:25:05;99819.13;;;7.09;100.00
21129;BME280;10722;51.910;8.352;2023-03-26T03:27:50;99837.13;;;7.08;100.00
21129;BME280;10722;51.910;8.352;2023-03-26T03:30:35;99826.06;;;7.13;100.00
21129;BME280;10722;51.910;8.352;2023-03-26T03:33:22;99820.88;;;7.12;100.00
21129;BME280;10722;51.910;8.352;2023-03-26T03:36:09;99831.22;;;7.15;100.00
21129;BME280;10722;51.910;8.352;2023-03-26T03:39:05;99833.75;;;7.12;100.00
21129;BME280;10722;51.910;8.352;2023-03-26T03:41:50;99827.78;;;7.13;100.00
21129;BME280;10722;51.910;8.352;2023-03-26T03:44:35;99832.09;;;7.14;100.00
21129;BME280;10722;51.910;8.352;2023-03-26T03:47:21;99829.66;;;7.22;100.00
21129;BME280;10722;51.910;8.352;2023-03-26T03:50:07;99826.03;;;7.12;100.00
21129;BME280;10722;51.910;8.352;2023-03-26T03:52:53;99825.19;;;7.11;100.00
21129;BME280;10722;51.910;8.352;2023-03-26T03:55:38;99825.19;;;7.11;100.00
21129;BME280;10722;51.910;8.352;2023-03-26T03:58:25;99824.31;;;7.11;100.00
21129;BME280;10722;51.910;8.352;2023-03-26T04:01:10;99820.84;;;7.09;100.00
21129;BME280;10722;51.910;8.352;2023-03-26T04:03:56;99820.88;;;7.12;100.00
21129;BME280;10722;51.910;8.352;2023-03-26T04:06:42;99812.34;;;7.13;100.00
21129;BME280;10722;51.910;8.352;2023-03-26T04:09:28;99813.16;;;7.12;100.00
21129;BME280;10722;51.910;8.352;2023-03-26T04:12:13;99808.91;;;7.12;100.00
21129;BME280;10722;51.910;8.352;2023-03-26T04:14:59;99808.91;;;7.12;100.00
21129;BME280;10722;51.910;8.352;2023-03-26T04:17:44;99801.19;;;7.12;100.00
21129;BME280;10722;51.910;8.352;2023-03-26T04:20:30;99790.06;;;7.15;100.00
21129;BME280;10722;51.910;8.352;2023-03-26T04:23:16;99797.00;;;7.19;100.00
21129;BME280;10722;51.910;8.352;2023-03-26T04:26:04;99790.16;;;7.18;100.00
21129;BME280;10722;51.910;8.352;2023-03-26T04:28:57;99787.59;;;7.19;100.00
21129;BME280;10722;51.910;8.352;2023-03-26T04:31:43;99785.00;;;7.18;100.00
21129;BME280;10722;51.910;8.352;2023-03-26T04:34:28;99779.94;;;7.24;100.00
21129;BME280;10722;51.910;8.352;2023-03-26T04:37:27;99785.19;;;7.30;100.00
21129;BME280;10722;51.910;8.352;2023-03-26T04:40:16;99787.72;;;7.29;100.00
21129;BME280;10722;51.910;8.352;2023-03-26T04:43:01;99778.31;;;7.31;100.00
21129;BME280;10722;51.910;8.352;2023-03-26T04:45:47;99771.38;;;7.24;100.00
21129;BME280;10722;51.910;8.352;2023-03-26T04:48:32;99774.84;;;7.29;100.00
21129;BME280;10722;51.910;8.352;2023-03-26T04:51:19;99766.28;;;7.27;100.00
21129;BME280;10722;51.910;8.352;2023-03-26T04:54:09;99762.94;;;7.32;100.00
21129;BME280;10722;51.910;8.352;2023-03-26T04:57:00;99755.13;;;7.28;100.00
21129;BME280;10722;51.910;8.352;2023-03-26T04:59:47;99748.25;;;7.27;100.00
21129;BME280;10722;51.910;8.352;2023-03-26T05:02:32;99747.53;;;7.35;100.00
21129;BME280;10722;51.910;8.352;2023-03-26T05:05:17;99753.53;;;7.36;100.00
21129;BME280;10722;51.910;8.352;2023-03-26T05:08:03;99750.84;;;7.27;100.00
21129;BME280;10722;51.910;8.352;2023-03-26T05:10:48;99742.25;;;7.28;100.00
21129;BME280;10722;51.910;8.352;2023-03-26T05:13:33;99739.72;;;7.29;100.00
21129;BME280;10722;51.910;8.352;2023-03-26T05:16:18;99745.66;;;7.25;100.00
21129;BME280;10722;51.910;8.352;2023-03-26T05:19:04;99732.81;;;7.27;100.00
21129;BME280;10722;51.910;8.352;2023-03-26T05:21:49;99736.22;;;7.24;100.00
21129;BME280;10722;51.910;8.352;2023-03-26T05:24:35;99734.47;;;7.23;100.00
21129;BME280;10722;51.910;8.352;2023-03-26T05:27:20;99719.03;;;7.23;100.00
21129;BME280;10722;51.910;8.352;2023-03-26T05:30:06;99719.03;;;7.23;100.00
21129;BME280;10722;51.910;8.352;2023-03-26T05:32:51;99718.16;;;7.23;100.00
21129;BME280;10722;51.910;8.352;2023-03-26T05:35:37;99707.06;;;7.25;100.00
21129;BME280;10722;51.910;8.352;2023-03-26T05:38:22;99707.16;;;7.30;100.00
21129;BME280;10722;51.910;8.352;2023-03-26T05:41:08;99710.53;;;7.29;100.00
21129;BME280;10722;51.910;8.352;2023-03-26T05:43:54;99692.53;;;7.27;100.00
21129;BME280;10722;51.910;8.352;2023-03-26T05:46:40;99706.19;;;7.25;100.00
21129;BME280;10722;51.910;8.352;2023-03-26T05:49:25;99707.88;;;7.23;100.00
21129;BME280;10722;51.910;8.352;2023-03-26T05:52:10;99706.25;;;7.28;100.00
21129;BME280;10722;51.910;8.352;2023-03-26T05:54:56;99696.72;;;7.22;100.00
21129;BME280;10722;51.910;8.352;2023-03-26T05:57:41;99690.72;;;7.23;100.00
21129;BME280;10722;51.910;8.352;2023-03-26T06:00:27;99696.78;;;7.25;100.00
21129;BME280;10722;51.910;8.352;2023-03-26T06:03:12;99677.91;;;7.25;100.00
21129;BME280;10722;51.910;8.352;2023-03-26T06:05:58;99689.91;;;7.26;100.00
21129;BME280;10722;51.910;8.352;2023-03-26T06:08:45;99677.97;;;7.29;100.00
21129;BME280;10722;51.910;8.352;2023-03-26T06:11:30;99682.38;;;7.38;100.00
21129;BME280;10722;51.910;8.352;2023-03-26T06:14:16;99668.63;;;7.37;100.00
21129;BME280;10722;51.910;8.352;2023-03-26T06:17:02;99672.06;;;7.36;100.00
21129;BME280;10722;51.910;8.352;2023-03-26T06:19:47;99664.25;;;7.30;100.00
21129;BME280;10722;51.910;8.352;2023-03-26T06:22:33;99657.44;;;7.34;100.00
21129;BME280;10722;51.910;8.352;2023-03-26T06:25:19;99652.25;;;7.31;100.00
21129;BME280;10722;51.910;8.352;2023-03-26T06:28:04;99646.28;;;7.33;100.00
21129;BME280;10722;51.910;8.352;2023-03-26T06:30:49;99656.63;;;7.35;100.00
21129;BME280;10722;51.910;8.352;2023-03-26T06:33:35;99654.13;;;7.41;100.00
21129;BME280;10722;51.910;8.352;2023-03-26T06:36:20;99654.94;;;7.40;100.00
21129;BME280;10722;51.910;8.352;2023-03-26T06:39:05;99648.97;;;7.41;100.00
21129;BME280;10722;51.910;8.352;2023-03-26T06:41:52;99656.09;;;7.60;100.00
21129;BME280;10722;51.910;8.352;2023-03-26T06:44:37;99647.56;;;7.66;100.00
21129;BME280;10722;51.910;8.352;2023-03-26T06:47:23;99652.72;;;7.68;100.00
21129;BME280;10722;51.910;8.352;2023-03-26T06:50:09;99642.34;;;7.61;100.00
21129;BME280;10722;51.910;8.352;2023-03-26T06:52:55;99641.53;;;7.64;100.00
21129;BME280;10722;51.910;8.352;2023-03-26T06:55:40;99630.41;;;7.67;100.00
21129;BME280;10722;51.910;8.352;2023-03-26T06:58:25;99632.09;;;7.64;100.00
21129;BME280;10722;51.910;8.352;2023-03-26T07:01:11;99623.63;;;7.73;100.00
21129;BME280;10722;51.910;8.352;2023-03-26T07:03:56;99626.16;;;7.69;100.00
21129;BME280;10722;51.910;8.352;2023-03-26T07:06:44;99620.25;;;7.79;100.00
21129;BME280;10722;51.910;8.352;2023-03-26T07:09:29;99613.41;;;7.81;100.00
21129;BME280;10722;51.910;8.352;2023-03-26T07:12:14;99596.28;;;7.83;100.00
21129;BME280;10722;51.910;8.352;2023-03-26T07:15:00;99594.53;;;7.80;100.00
21129;BME280;10722;51.910;8.352;2023-03-26T07:17:46;99586.91;;;7.93;100.00
21129;BME280;10722;51.910;8.352;2023-03-26T07:20:31;99586.00;;;7.88;100.00
21129;BME280;10722;51.910;8.352;2023-03-26T07:23:17;99584.31;;;7.91;100.00
21129;BME280;10722;51.910;8.352;2023-03-26T07:26:19;99576.59;;;7.91;100.00
21129;BME280;10722;51.910;8.352;2023-03-26T07:40:52;99553.00;;;8.41;100.00
21129;BME280;10722;51.910;8.352;2023-03-26T07:46:33;99556.50;;;8.46;100.00
21129;BME280;10722;51.910;8.352;2023-03-26T07:49:19;99542.66;;;8.37;100.00
21129;BME280;10722;51.910;8.352;2023-03-26T07:52:05;99541.88;;;8.42;100.00
21129;BME280;10722;51.910;8.352;2023-03-26T07:54:50;99536.69;;;8.39;100.00
21129;BME280;10722;51.910;8.352;2023-03-26T08:06:12;99541.72;;;8.27;100.00
21129;BME280;10722;51.910;8.352;2023-03-26T08:09:12;99550.28;;;8.23;100.00
21129;BME280;10722;51.910;8.352;2023-03-26T08:24:03;99543.06;;;9.00;100.00
21129;BME280;10722;51.910;8.352;2023-03-26T08:27:15;99533.72;;;9.23;100.00
21129;BME280;10722;51.910;8.352;2023-03-26T08:30:22;99519.13;;;9.30;100.00
21129;BME280;10722;51.910;8.352;2023-03-26T08:33:19;99520.00;;;9.42;100.00
21129;BME280;10722;51.910;8.352;2023-03-26T08:36:05;99508.00;;;9.54;100.00
21129;BME280;10722;51.910;8.352;2023-03-26T08:38:50;99499.34;;;9.42;100.00
21129;BME280;10722;51.910;8.352;2023-03-26T08:44:47;99492.53;;;9.63;100.00
21129;BME280;10722;51.910;8.352;2023-03-26T08:57:02;99445.97;;;9.22;100.00
21129;BME280;10722;51.910;8.352;2023-03-26T09:00:07;99446.00;;;9.31;100.00
21129;BME280;10722;51.910;8.352;2023-03-26T09:02:58;99456.28;;;9.26;100.00
21129;BME280;10722;51.910;8.352;2023-03-26T09:09:07;99439.00;;;8.91;100.00
21129;BME280;10722;51.910;8.352;2023-03-26T09:47:22;99446.75;;;8.93;100.00
21129;BME280;10722;51.910;8.352;2023-03-26T09:57:00;99443.31;;;9.00;100.00
21129;BME280;10722;51.910;8.352;2023-03-26T10:00:33;99447.59;;;8.87;100.00
21129;BME280;10722;51.910;8.352;2023-03-26T10:03:35;99435.50;;;8.74;100.00
21129;BME280;10722;51.910;8.352;2023-03-26T10:13:00;99460.44;;;8.77;100.00
21129;BME280;10722;51.910;8.352;2023-03-26T10:19:30;99483.56;;;8.60;100.00
21129;BME280;10722;51.910;8.352;2023-03-26T10:31:45;99517.84;;;8.45;100.00
21129;BME280;10722;51.910;8.352;2023-03-26T10:50:25;99521.09;;;8.30;100.00
21129;BME280;10722;51.910;8.352;2023-03-26T10:56:31;99534.22;;;8.58;100.00
21129;BME280;10722;51.910;8.352;2023-03-26T10:59:18;99518.78;;;8.59;100.00
21129;BME280;10722;51.910;8.352;2023-03-26T11:02:27;99518.84;;;8.71;100.00
21129;BME280;10722;51.910;8.352;2023-03-26T11:05:21;99515.41;;;8.71;100.00
21129;BME280;10722;51.910;8.352;2023-03-26T11:11:33;99514.56;;;8.78;100.00
21129;BME280;10722;51.910;8.352;2023-03-26T11:14:29;99515.47;;;8.80;100.00
21129;BME280;10722;51.910;8.352;2023-03-26T11:21:05;99511.94;;;8.66;100.00
21129;BME280;10722;51.910;8.352;2023-03-26T11:30:12;99499.22;;;8.96;100.00
21129;BME280;10722;51.910;8.352;2023-03-26T11:33:05;99500.09;;;9.03;100.00
21129;BME280;10722;51.910;8.352;2023-03-26T11:35:58;99499.19;;;8.90;100.00
21129;BME280;10722;51.910;8.352;2023-03-26T11:38:48;99499.94;;;8.75;100.00
21129;BME280;10722;51.910;8.352;2023-03-26T11:41:34;99499.00;;;8.53;100.00
21129;BME280;10722;51.910;8.352;2023-03-26T11:44:24;99499.84;;;8.54;100.00
21129;BME280;10722;51.910;8.352;2023-03-26T11:47:12;99508.47;;;8.61;100.00
21129;BME280;10722;51.910;8.352;2023-03-26T11:50:01;99504.19;;;8.63;100.00
21129;BME280;10722;51.910;8.352;2023-03-26T11:52:48;99515.38;;;8.62;100.00
21129;BME280;10722;51.910;8.352;2023-03-26T11:55:33;99513.59;;;8.55;100.00
21129;BME280;10722;51.910;8.352;2023-03-26T11:58:32;99514.31;;;8.38;100.00
21129;BME280;10722;51.910;8.352;2023-03-26T12:01:25;99517.72;;;8.34;100.00
21129;BME280;10722;51.910;8.352;2023-03-26T12:04:13;99512.63;;;8.40;100.00
21129;BME280;10722;51.910;8.352;2023-03-26T12:07:11;99514.19;;;8.24;100.00
21129;BME280;10722;51.910;8.352;2023-03-26T12:10:09;99515.13;;;8.31;100.00
21129;BME280;10722;51.910;8.352;2023-03-26T12:13:31;99511.84;;;8.49;100.00
21129;BME280;10722;51.910;8.352;2023-03-26T12:16:19;99508.41;;;8.53;100.00
21129;BME280;10722;51.910;8.352;2023-03-26T12:19:17;99511.91;;;8.61;100.00
21129;BME280;10722;51.910;8.352;2023-03-26T12:22:04;99511.84;;;8.52;100.00
21129;BME280;10722;51.910;8.352;2023-03-26T12:25:00;99508.25;;;8.33;100.00
21129;BME280;10722;51.910;8.352;2023-03-26T12:31:03;99508.13;;;8.19;100.00
21129;BME280;10722;51.910;8.352;2023-03-26T12:34:15;99515.03;;;8.17;100.00
21129;BME280;10722;51.910;8.352;2023-03-26T12:37:01;99519.31;;;8.17;100.00
21129;BME280;10722;51.910;8.352;2023-03-26T12:39:47;99507.25;;;8.11;100.00
21129;BME280;10722;51.910;8.352;2023-03-26T12:43:05;99506.47;;;8.20;100.00
21129;BME280;10722;51.910;8.352;2023-03-26T12:46:32;99509.91;;;8.23;100.00
21129;BME280;10722;51.910;8.352;2023-03-26T12:49:37;99510.84;;;8.31;100.00
21129;BME280;10722;51.910;8.352;2023-03-26T12:55:38;99510.06;;;8.40;100.00
21129;BME280;10722;51.910;8.352;2023-03-26T13:04:50;99494.44;;;8.20;100.00
21129;BME280;10722;51.910;8.352;2023-03-26T13:17:23;99492.94;;;8.50;100.00
21129;BME280;10722;51.910;8.352;2023-03-26T13:20:27;99494.69;;;8.56;100.00
21129;BME280;10722;51.910;8.352;2023-03-26T13:26:44;99499.59;;;8.25;100.00
21129;BME280;10722;51.910;8.352;2023-03-26T13:29:49;99507.25;;;8.13;100.00
21129;BME280;10722;51.910;8.352;2023-03-26T13:35:57;99498.88;;;8.41;100.00
21129;BME280;10722;51.910;8.352;2023-03-26T13:39:26;99504.84;;;8.34;100.00
21129;BME280;10722;51.910;8.352;2023-03-26T13:45:26;99504.13;;;8.50;100.00
21129;BME280;10722;51.910;8.352;2023-03-26T13:48:26;99498.19;;;8.62;100.00
21129;BME280;10722;51.910;8.352;2023-03-26T13:51:21;99498.19;;;8.67;100.00
21129;BME280;10722;51.910;8.352;2023-03-26T13:54:16;99490.38;;;8.53;100.00
21129;BME280;10722;51.910;8.352;2023-03-26T13:57:23;99491.31;;;8.69;100.00
21129;BME280;10722;51.910;8.352;2023-03-26T14:00:13;99502.50;;;8.65;100.00
21129;BME280;10722;51.910;8.352;2023-03-26T14:03:17;99484.47;;;8.75;100.00
21129;BME280;10722;51.910;8.352;2023-03-26T14:06:13;99495.59;;;8.64;100.00
21129;BME280;10722;51.910;8.352;2023-03-26T14:09:05;99491.25;;;8.50;100.00
21129;BME280;10722;51.910;8.352;2023-03-26T14:15:02;99495.34;;;8.28;100.00
21129;BME280;10722;51.910;8.352;2023-03-26T14:42:02;99496.19;;;8.26;100.00
21129;BME280;10722;51.910;8.352;2023-03-26T14:48:31;99504.81;;;8.32;100.00
21129;BME280;10722;51.910;8.352;2023-03-26T14:54:31;99495.50;;;8.45;100.00
21129;BME280;10722;51.910;8.352;2023-03-26T15:10:38;99518.44;;;8.15;100.00
21129;BME280;10722;51.910;8.352;2023-03-26T15:42:09;99550.88;;;7.16;100.00
21129;BME280;10722;51.910;8.352;2023-03-26T15:48:02;99556.75;;;7.05;100.00
21129;BME280;10722;51.910;8.352;2023-03-26T15:54:15;99551.59;;;7.06;100.00
21129;BME280;10722;51.910;8.352;2023-03-26T15:57:11;99558.56;;;7.13;100.00
21129;BME280;10722;51.910;8.352;2023-03-26T16:06:18;99573.94;;;7.09;100.00
21129;BME280;10722;51.910;8.352;2023-03-26T16:12:26;99570.38;;;6.99;100.00
21129;BME280;10722;51.910;8.352;2023-03-26T16:15:22;99572.31;;;7.17;100.00
21129;BME280;10722;51.910;8.352;2023-03-26T16:32:47;99581.00;;;7.24;100.00
21129;BME280;10722;51.910;8.352;2023-03-26T16:36:02;99578.38;;;7.21;100.00
21129;BME280;10722;51.910;8.352;2023-03-26T16:41:56;99570.72;;;7.24;100.00
21129;BME280;10722;51.910;8.352;2023-03-26T17:03:25;99574.47;;;6.86;100.00
21129;BME280;10722;51.910;8.352;2023-03-26T17:06:28;99565.00;;;6.82;100.00
21129;BME280;10722;51.910;8.352;2023-03-26T17:12:31;99548.53;;;6.69;100.00
21129;BME280;10722;51.910;8.352;2023-03-26T17:18:41;99562.44;;;6.84;100.00
21129;BME280;10722;51.910;8.352;2023-03-26T17:33:35;99581.94;;;6.69;100.00
21129;BME280;10722;51.910;8.352;2023-03-26T17:36:39;99586.31;;;6.75;100.00
21129;BME280;10722;51.910;8.352;2023-03-26T17:42:34;99595.66;;;6.70;100.00
21129;BME280;10722;51.910;8.352;2023-03-26T17:45:19;99587.94;;;6.68;98.97
21129;BME280;10722;51.910;8.352;2023-03-26T17:48:20;99578.53;;;6.69;97.94
21129;BME280;10722;51.910;8.352;2023-03-26T17:54:33;99572.41;;;6.61;96.22
21129;BME280;10722;51.910;8.352;2023-03-26T17:57:28;99565.31;;;6.46;95.13
21129;BME280;10722;51.910;8.352;2023-03-26T18:00:20;99554.09;;;6.39;94.28
21129;BME280;10722;51.910;8.352;2023-03-26T18:06:06;99549.59;;;6.27;93.19
21129;BME280;10722;51.910;8.352;2023-03-26T18:12:08;99569.44;;;6.35;92.56
21129;BME280;10722;51.910;8.352;2023-03-26T18:18:13;99572.72;;;6.26;91.70
21129;BME280;10722;51.910;8.352;2023-03-26T18:21:03;99551.75;;;6.01;90.29
21129;BME280;10722;51.910;8.352;2023-03-26T18:23:50;99528.69;;;6.03;88.71
21129;BME280;10722;51.910;8.352;2023-03-26T18:26:48;99507.25;;;6.01;87.46
21129;BME280;10722;51.910;8.352;2023-03-26T18:29:36;99496.91;;;5.96;86.99
21129;BME280;10722;51.910;8.352;2023-03-26T18:32:26;99497.63;;;5.91;86.58
21129;BME280;10722;51.910;8.352;2023-03-26T18:35:16;99512.78;;;5.75;86.41
21129;BME280;10722;51.910;8.352;2023-03-26T18:38:01;99504.03;;;5.64;85.72
21129;BME280;10722;51.910;8.352;2023-03-26T18:40:51;99485.72;;;5.46;84.82
21129;BME280;10722;51.910;8.352;2023-03-26T18:43:39;99487.41;;;5.44;83.92
21129;BME280;10722;51.910;8.352;2023-03-26T18:46:29;99486.41;;;5.35;83.79
21129;BME280;10722;51.910;8.352;2023-03-26T18:49:17;99495.88;;;5.39;83.69
21129;BME280;10722;51.910;8.352;2023-03-26T18:52:02;99510.41;;;5.40;83.71
21129;BME280;10722;51.910;8.352;2023-03-26T18:54:50;99500.09;;;5.36;83.19
21129;BME280;10722;51.910;8.352;2023-03-26T18:57:37;99499.09;;;5.29;82.28
21129;BME280;10722;51.910;8.352;2023-03-26T19:00:24;99494.88;;;5.31;81.79
21129;BME280;10722;51.910;8.352;2023-03-26T19:03:12;99488.59;;;5.15;81.54
21129;BME280;10722;51.910;8.352;2023-03-26T19:06:00;99519.56;;;5.26;81.80
21129;BME280;10722;51.910;8.352;2023-03-26T19:08:46;99536.63;;;5.26;81.60
21129;BME280;10722;51.910;8.352;2023-03-26T19:11:36;99510.78;;;5.15;80.85
21129;BME280;10722;51.910;8.352;2023-03-26T19:14:22;99497.03;;;5.10;80.22
21129;BME280;10722;51.910;8.352;2023-03-26T19:17:10;99501.19;;;5.05;80.09
21129;BME280;10722;51.910;8.352;2023-03-26T19:19:56;99509.63;;;5.01;79.79
21129;BME280;10722;51.910;8.352;2023-03-26T19:22:43;99549.16;;;5.10;80.02
21129;BME280;10722;51.910;8.352;2023-03-26T19:25:47;99573.91;;;5.08;80.38
21129;BME280;10722;51.910;8.352;2023-03-26T19:28:39;99575.53;;;5.05;80.04
21129;BME280;10722;51.910;8.352;2023-03-26T19:31:35;99596.84;;;5.04;80.76
21129;BME280;10722;51.910;8.352;2023-03-26T19:34:30;99592.97;;;4.82;80.57
21129;BME280;10722;51.910;8.352;2023-03-26T19:37:24;99601.47;;;4.79;80.96
21129;BME280;10722;51.910;8.352;2023-03-26T19:40:32;99641.69;;;4.83;81.62
21129;BME280;10722;51.910;8.352;2023-03-26T19:43:18;99649.25;;;4.77;81.60
21129;BME280;10722;51.910;8.352;2023-03-26T19:46:03;99655.09;;;4.71;81.75
21129;BME280;10722;51.910;8.352;2023-03-26T19:48:50;99677.44;;;4.77;81.74
21129;BME280;10722;51.910;8.352;2023-03-26T19:51:36;99668.31;;;4.54;82.23
21129;BME280;10722;51.910;8.352;2023-03-26T19:54:21;99681.28;;;4.60;82.04
21129;BME280;10722;51.910;8.352;2023-03-26T19:57:07;99688.41;;;4.38;81.95
21129;BME280;10722;51.910;8.352;2023-03-26T19:59:53;99697.91;;;4.42;82.29
21129;BME280;10722;51.910;8.352;2023-03-26T20:02:40;99721.16;;;4.50;82.76
21129;BME280;10722;51.910;8.352;2023-03-26T20:05:29;99737.41;;;4.51;82.99
21129;BME280;10722;51.910;8.352;2023-03-26T20:08:15;99744.34;;;4.55;83.23
21129;BME280;10722;51.910;8.352;2023-03-26T20:11:01;99762.09;;;4.48;82.94
21129;BME280;10722;51.910;8.352;2023-03-26T20:13:47;99769.09;;;4.56;83.92
21129;BME280;10722;51.910;8.352;2023-03-26T20:16:33;99772.28;;;4.45;83.85
21129;BME280;10722;51.910;8.352;2023-03-26T20:19:18;99769.16;;;4.25;83.50
21129;BME280;10722;51.910;8.352;2023-03-26T20:22:04;99776.41;;;4.10;83.60
21129;BME280;10722;51.910;8.352;2023-03-26T20:24:51;99780.59;;;4.07;83.83
21129;BME280;10722;51.910;8.352;2023-03-26T20:27:37;99780.44;;;4.02;83.17
21129;BME280;10722;51.910;8.352;2023-03-26T20:30:22;99785.06;;;3.85;83.26
21129;BME280;10722;51.910;8.352;2023-03-26T20:33:24;99783.00;;;3.72;83.05
21129;BME280;10722;51.910;8.352;2023-03-26T20:36:11;99817.31;;;3.80;83.68
21129;BME280;10722;51.910;8.352;2023-03-26T20:38:57;99816.25;;;3.72;83.59
21129;BME280;10722;51.910;8.352;2023-03-26T20:41:46;99819.56;;;3.69;83.64
21129;BME280;10722;51.910;8.352;2023-03-26T20:44:32;99817.78;;;3.67;83.71
21129;BME280;10722;51.910;8.352;2023-03-26T20:47:18;99835.63;;;3.65;84.30
21129;BME280;10722;51.910;8.352;2023-03-26T20:50:04;99849.44;;;3.70;84.22
21129;BME280;10722;51.910;8.352;2023-03-26T20:52:49;99857.69;;;3.62;84.26